Airport ID:CYTF
Update Time (UTC):23/02/2020 03:22
Wind Speed (Knots):7
Wind Direction (Magnetic):250
Temperature (°C):-0.6
Dew Point (°C):-6.2
Humidity (%):66
Altimeter (inHg):29.87
Density Altitude (Feet):\\\\
Visibility (Miles):6
Clouds (Hundreds of feet):NCD
Present Weather:
METAR:METAR CYTF 230330Z AUTO 24008KT 10SM NCD M00/M06 A2986

The data displayed is for advisory purposes only and is not to be used for flight planning or operations.

This page is not automatically refreshed. Reload the page to see current data.